Time;durP1;ratioP1;P1;durP2;ratioP2;P2;SDS_P1;SDS_P2;PMS_P1;PMS_P2;Temp;Humidity;BMP_temperature;BMP_pressure;BME280_temperature;BME280_humidity;BME280_pressure;Samples;Min_cycle;Max_cycle;Signal;HPM_P1;HPM_P2
2022/01/25 00:28:43;;;;;;;38.45;19.52;;;1.60;99.90;;;;;;5068733;28;20410;-65
2022/01/25 00:33:39;;;;;;;36.78;20.00;;;1.60;99.90;;;;;;5069038;28;20415;-66
2022/01/25 00:36:08;;;;;;;37.60;20.50;;;1.60;99.90;;;;;;5069027;28;20376;-67
2022/01/25 00:38:34;;;;;;;34.60;20.98;;;1.70;99.90;;;;;;5068623;28;20988;-65
2022/01/25 00:41:00;;;;;;;38.85;21.48;;;1.70;99.90;;;;;;5077900;28;20378;-66
2022/01/25 00:43:27;;;;;;;36.95;20.60;;;1.60;99.90;;;;;;5088135;28;20854;-68
2022/01/25 00:45:57;;;;;;;37.10;20.73;;;1.60;99.90;;;;;;5089046;28;20400;-68
2022/01/25 00:56:18;;;;;;;37.17;19.95;;;1.40;99.90;;;;;;5088866;28;20393;-67
2022/01/25 00:58:44;;;;;;;39.85;20.90;;;3.00;99.90;;;;;;5087695;28;20411;-67
2022/01/25 01:01:10;;;;;;;37.50;19.93;;;1.40;99.90;;;;;;5073076;28;20398;-65
2022/01/25 01:03:35;;;;;;;38.87;19.83;;;1.30;99.90;;;;;;5072112;28;20384;-66
2022/01/25 01:06:03;;;;;;;36.70;20.85;;;1.80;99.90;;;;;;5073199;28;20821;-66
2022/01/25 01:08:28;;;;;;;37.00;20.88;;;1.20;99.90;;;;;;5071905;28;20407;-65
2022/01/25 01:10:54;;;;;;;39.70;21.80;;;1.20;99.90;;;;;;5088269;28;20388;-65
2022/01/25 01:13:49;;;;;;;39.20;20.73;;;1.20;99.90;;;;;;5092012;28;20374;-65
2022/01/25 01:30:16;;;;;;;37.00;20.67;;;1.10;99.90;;;;;;5091220;28;20380;-66
2022/01/25 01:43:36;;;;;;;37.33;21.08;;;1.00;99.90;;;;;;5091327;28;20404;-66
2022/01/25 01:51:43;;;;;;;44.90;20.30;;;1.00;99.90;;;;;;5091761;28;20374;-61
2022/01/25 01:54:12;;;;;;;39.67;20.95;;;0.90;99.90;;;;;;5091494;28;20382;-66
2022/01/25 01:56:39;;;;;;;41.25;21.42;;;2.00;99.90;;;;;;5091250;28;20371;-65
2022/01/25 01:59:09;;;;;;;41.45;22.70;;;0.90;99.90;;;;;;5091785;28;20386;-66
2022/01/25 02:01:37;;;;;;;38.85;21.50;;;2.10;99.90;;;;;;5090836;28;20384;-66
2022/01/25 02:04:05;;;;;;;40.47;21.20;;;1.00;99.90;;;;;;5091172;28;20397;-66
2022/01/25 02:06:31;;;;;;;40.05;21.45;;;0.80;99.90;;;;;;5090958;28;20377;-65
2022/01/25 02:08:58;;;;;;;39.42;20.52;;;0.80;99.90;;;;;;5085008;28;20419;-65
2022/01/25 02:11:25;;;;;;;37.40;19.85;;;0.80;99.90;;;;;;5077889;28;20384;-66
2022/01/25 02:13:51;;;;;;;39.30;21.70;;;0.80;99.90;;;;;;5071121;28;20471;-65
2022/01/25 02:16:39;;;;;;;41.90;21.95;;;0.80;99.90;;;;;;5070212;28;20390;-60
2022/01/25 02:24:39;;;;;;;37.45;20.52;;;0.90;99.90;;;;;;5070597;28;20489;-66
2022/01/25 02:27:05;;;;;;;39.85;20.23;;;2.60;99.90;;;;;;5071484;28;20380;-66
2022/01/25 02:29:30;;;;;;;41.22;21.95;;;1.00;99.90;;;;;;5070700;28;20384;-67
2022/01/25 02:31:56;;;;;;;42.77;21.87;;;1.00;99.90;;;;;;5103550;28;20399;-67
2022/01/25 02:34:23;;;;;;;40.27;20.40;;;2.10;99.90;;;;;;5070359;28;20387;-67
2022/01/25 02:37:06;;;;;;;38.33;20.92;;;2.10;99.90;;;;;;5071459;28;20392;-66
2022/01/25 02:39:33;;;;;;;47.40;22.70;;;0.80;99.90;;;;;;5073160;28;21025;-67
2022/01/25 02:41:59;;;;;;;38.90;21.70;;;0.80;99.90;;;;;;5088051;28;20371;-66
2022/01/25 02:44:26;;;;;;;42.67;21.38;;;0.80;99.90;;;;;;5076638;28;20715;-66
2022/01/25 02:49:31;;;;;;;44.38;21.40;;;0.70;99.90;;;;;;5069475;28;20392;-66
2022/01/25 02:51:57;;;;;;;42.88;21.98;;;0.70;99.90;;;;;;5070680;28;20367;-66
2022/01/25 02:54:23;;;;;;;41.88;21.40;;;0.70;99.90;;;;;;5069841;28;20380;-66
2022/01/25 02:56:49;;;;;;;39.65;21.60;;;0.60;99.90;;;;;;5070325;28;20390;-66
2022/01/25 02:59:16;;;;;;;42.25;23.55;;;0.60;99.90;;;;;;5070128;28;20384;-61
2022/01/25 03:01:44;;;;;;;45.00;22.75;;;0.60;99.90;;;;;;5070293;28;20449;-66
2022/01/25 03:04:10;;;;;;;40.08;21.77;;;0.60;99.90;;;;;;5070598;28;20406;-66
2022/01/25 03:06:37;;;;;;;46.70;22.33;;;0.50;99.90;;;;;;5069601;28;20380;-66
2022/01/25 03:09:05;;;;;;;47.10;23.17;;;0.50;99.90;;;;;;5070572;28;20408;-66
2022/01/25 03:11:31;;;;;;;42.53;22.70;;;0.40;99.90;;;;;;5069624;28;20387;-67
2022/01/25 03:14:00;;;;;;;42.35;21.45;;;0.40;99.90;;;;;;5070418;28;20393;-66
2022/01/25 03:19:03;;;;;;;41.53;21.92;;;0.40;99.90;;;;;;5070537;28;20400;-66
2022/01/25 03:23:57;;;;;;;43.20;22.45;;;0.50;99.90;;;;;;5070564;28;20376;-66
2022/01/25 03:26:24;;;;;;;45.93;22.53;;;0.40;99.90;;;;;;5069501;28;20372;-65
2022/01/25 03:28:50;;;;;;;48.13;24.08;;;0.40;99.90;;;;;;5069812;28;20419;-68
2022/01/25 03:31:16;;;;;;;41.80;22.98;;;0.40;99.90;;;;;;5069845;28;20386;-61
2022/01/25 03:33:42;;;;;;;46.67;23.38;;;0.50;99.90;;;;;;5074805;28;20386;-65
2022/01/25 03:36:09;;;;;;;46.08;23.58;;;0.40;99.90;;;;;;5089295;28;20907;-65
2022/01/25 03:38:37;;;;;;;41.70;22.67;;;0.40;99.90;;;;;;5088107;28;20385;-66
2022/01/25 03:41:10;;;;;;;53.58;24.75;;;1.00;99.90;;;;;;5088896;28;20377;-64
2022/01/25 03:43:37;;;;;;;48.83;22.90;;;1.10;99.90;;;;;;5089638;28;20381;-66
2022/01/25 03:46:11;;;;;;;49.63;24.55;;;0.40;99.90;;;;;;5089904;28;20398;-66
2022/01/25 03:51:21;;;;;;;43.70;23.00;;;0.30;99.90;;;;;;5089128;28;20880;-65
2022/01/25 03:53:47;;;;;;;48.70;23.80;;;0.30;99.90;;;;;;5089642;28;20382;-65
2022/01/25 03:56:12;;;;;;;46.17;24.40;;;0.30;99.90;;;;;;5090103;28;20416;-66
2022/01/25 03:58:38;;;;;;;42.92;22.48;;;0.70;99.90;;;;;;5089087;28;20424;-65
2022/01/25 04:01:04;;;;;;;46.30;24.53;;;0.40;99.90;;;;;;5090036;28;20446;-65
2022/01/25 04:03:36;;;;;;;47.97;23.43;;;0.30;99.90;;;;;;5085315;28;20405;-65
2022/01/25 04:06:03;;;;;;;43.90;23.23;;;0.30;99.90;;;;;;5082171;28;20379;-65
2022/01/25 04:08:29;;;;;;;51.57;25.00;;;0.40;99.90;;;;;;5089259;28;20404;-65
2022/01/25 04:10:55;;;;;;;47.77;25.00;;;0.30;99.90;;;;;;5088415;28;20477;-64
2022/01/25 04:13:20;;;;;;;55.92;23.77;;;0.40;99.90;;;;;;5088880;28;20382;-65
2022/01/25 04:15:47;;;;;;;46.70;24.65;;;0.40;99.90;;;;;;5090081;28;20389;-65
2022/01/25 04:18:35;;;;;;;44.20;24.40;;;0.40;99.90;;;;;;5083694;28;20433;-65
2022/01/25 04:21:25;;;;;;;47.80;24.83;;;2.00;99.90;;;;;;5079350;28;20387;-65
2022/01/25 04:26:35;;;;;;;42.25;23.92;;;0.50;99.90;;;;;;5088578;28;20516;-64
2022/01/25 04:29:00;;;;;;;39.97;21.87;;;0.60;99.90;;;;;;5084527;28;20492;-65
2022/01/25 04:31:26;;;;;;;42.78;21.95;;;0.40;99.90;;;;;;5072349;28;20384;-64
2022/01/25 04:34:24;;;;;;;48.63;23.25;;;1.80;99.90;;;;;;5069354;28;20378;-65
2022/01/25 04:50:09;;;;;;;46.58;23.50;;;0.20;99.90;;;;;;5068806;28;20393;-65
2022/01/25 04:52:55;;;;;;;43.60;22.60;;;0.30;99.90;;;;;;5068357;28;20853;-64
2022/01/25 04:55:32;;;;;;;38.80;22.17;;;1.60;99.90;;;;;;5087747;28;20389;-60
2022/01/25 04:58:05;;;;;;;42.65;22.50;;;0.20;99.90;;;;;;5089172;28;20435;-64
2022/01/25 05:00:32;;;;;;;38.13;21.50;;;1.90;99.90;;;;;;5087325;28;20744;-64
2022/01/25 05:03:09;;;;;;;36.72;20.75;;;0.90;99.90;;;;;;5076000;28;20408;-61
2022/01/25 05:05:55;;;;;;;37.17;20.80;;;0.20;99.90;;;;;;5076356;28;20444;-61
2022/01/25 05:08:33;;;;;;;44.13;21.60;;;0.20;99.90;;;;;;5068380;28;20422;-60
2022/01/25 05:11:13;;;;;;;37.67;21.42;;;0.20;99.90;;;;;;5068025;28;20411;-60
2022/01/25 05:18:44;;;;;;;36.72;18.83;;;0.10;99.90;;;;;;5072243;28;20560;-61
2022/01/25 05:23:54;;;;;;;33.03;18.23;;;0.30;99.90;;;;;;5080839;28;20421;-60
2022/01/25 05:26:21;;;;;;;37.97;19.77;;;0.30;99.90;;;;;;5077604;28;20415;-59
2022/01/25 05:28:46;;;;;;;33.75;18.73;;;0.30;99.90;;;;;;5079594;28;20423;-61
2022/01/25 05:31:12;;;;;;;37.42;19.65;;;0.40;99.90;;;;;;5078717;28;20407;-59
2022/01/25 05:33:37;;;;;;;35.30;18.05;;;0.40;99.90;;;;;;5082441;28;20469;-60
2022/01/25 05:36:03;;;;;;;38.20;18.40;;;0.40;99.90;;;;;;5066528;28;20392;-60
2022/01/25 05:38:29;;;;;;;36.70;18.40;;;0.30;99.90;;;;;;5072080;28;20419;-61
2022/01/25 05:41:00;;;;;;;34.40;18.70;;;0.10;99.90;;;;;;5083423;28;20412;-60
2022/01/25 05:46:13;;;;;;;33.15;18.65;;;0.00;99.90;;;;;;5071465;28;20411;-60
2022/01/25 05:48:40;;;;;;;36.40;19.58;;;0.00;99.90;;;;;;5084301;28;20410;-60
2022/01/25 05:51:06;;;;;;;31.42;17.27;;;0.80;99.90;;;;;;5108016;28;20393;-59
2022/01/25 05:53:31;;;;;;;33.65;18.98;;;0.40;99.90;;;;;;5083326;28;20403;-60
2022/01/25 05:55:58;;;;;;;35.30;19.03;;;0.10;99.90;;;;;;5100826;28;20411;-59
2022/01/25 05:58:24;;;;;;;34.00;17.55;;;1.40;99.90;;;;;;5088317;28;20444;-60
2022/01/25 06:00:49;;;;;;;39.38;18.08;;;0.60;99.90;;;;;;5076239;28;20768;-60
2022/01/25 06:03:18;;;;;;;35.67;18.88;;;-0.10;99.90;;;;;;5076746;28;20404;-59
2022/01/25 06:05:44;;;;;;;32.47;18.10;;;-0.20;99.90;;;;;;5069398;28;20432;-60
2022/01/25 06:08:10;;;;;;;36.55;17.83;;;-0.20;99.90;;;;;;5070853;28;20404;-60
2022/01/25 06:10:37;;;;;;;35.70;18.42;;;-0.30;99.90;;;;;;5069564;28;21030;-59
2022/01/25 06:13:04;;;;;;;39.53;19.48;;;-0.30;99.90;;;;;;5072051;28;20395;-60
2022/01/25 06:15:30;;;;;;;41.30;21.13;;;-0.40;99.90;;;;;;5068839;28;20419;-60
2022/01/25 06:17:55;;;;;;;47.95;22.15;;;-0.50;99.90;;;;;;5070013;28;20435;-60
2022/01/25 06:20:21;;;;;;;42.08;21.08;;;0.40;99.90;;;;;;5069260;28;20403;-59
2022/01/25 06:22:47;;;;;;;47.00;22.80;;;-0.30;99.90;;;;;;5069911;28;20503;-59
2022/01/25 06:25:13;;;;;;;44.88;23.67;;;-0.30;99.90;;;;;;5080431;28;20958;-60
2022/01/25 06:27:40;;;;;;;47.90;23.25;;;-0.30;99.90;;;;;;5069880;28;20407;-60
2022/01/25 06:30:12;;;;;;;46.90;23.90;;;-0.30;99.90;;;;;;5070027;28;20522;-60
2022/01/25 06:32:37;;;;;;;43.47;22.52;;;-0.30;99.90;;;;;;5071370;28;20392;-59
2022/01/25 06:35:05;;;;;;;49.93;23.40;;;-0.30;99.90;;;;;;5083221;28;20713;-60
2022/01/25 06:37:31;;;;;;;43.15;22.20;;;-0.40;99.90;;;;;;5088731;28;20381;-61
2022/01/25 06:39:58;;;;;;;56.58;26.17;;;-0.40;99.90;;;;;;5081932;28;20391;-60
2022/01/25 06:42:29;;;;;;;50.13;25.05;;;-0.40;99.90;;;;;;5074372;28;20401;-59
2022/01/25 06:44:59;;;;;;;45.90;24.10;;;-0.30;99.90;;;;;;5077527;28;20389;-60
2022/01/25 06:47:25;;;;;;;47.97;24.20;;;-0.30;99.90;;;;;;5085811;28;20872;-61
2022/01/25 06:49:51;;;;;;;43.08;23.30;;;-0.20;99.90;;;;;;5087204;28;20382;-61
2022/01/25 06:52:17;;;;;;;45.35;23.83;;;-0.20;99.90;;;;;;5084919;28;20381;-59
2022/01/25 06:54:42;;;;;;;47.25;22.95;;;1.10;99.90;;;;;;5078660;28;20378;-60
2022/01/25 06:57:08;;;;;;;43.15;22.15;;;-0.20;99.90;;;;;;5087615;28;20386;-60
2022/01/25 06:59:34;;;;;;;45.72;22.60;;;-0.20;99.90;;;;;;5083737;28;20374;-59
2022/01/25 07:02:00;;;;;;;47.50;24.10;;;-0.30;99.90;;;;;;5084671;28;20681;-60
2022/01/25 07:04:25;;;;;;;47.90;23.97;;;-0.40;99.90;;;;;;5073962;28;20409;-59
2022/01/25 07:06:51;;;;;;;46.80;23.92;;;-0.40;99.90;;;;;;5079263;28;20393;-60
2022/01/25 07:09:17;;;;;;;45.70;24.23;;;-0.40;99.90;;;;;;5083431;28;20403;-60
2022/01/25 07:11:42;;;;;;;44.47;23.00;;;-0.30;99.90;;;;;;5080025;28;20426;-60
2022/01/25 07:14:08;;;;;;;42.78;22.98;;;-0.10;99.90;;;;;;5070540;28;20489;-60
2022/01/25 07:16:34;;;;;;;44.60;24.27;;;0.00;99.90;;;;;;5077167;28;20409;-61
2022/01/25 07:18:59;;;;;;;42.80;21.90;;;0.00;99.90;;;;;;5078434;28;20414;-62
2022/01/25 07:21:26;;;;;;;44.20;22.80;;;0.00;99.90;;;;;;5085011;28;20879;-61
2022/01/25 07:23:51;;;;;;;42.83;21.67;;;0.00;99.90;;;;;;5082195;28;20484;-61
2022/01/25 07:26:17;;;;;;;45.13;23.90;;;0.10;99.90;;;;;;5089260;28;20859;-61
2022/01/25 07:28:43;;;;;;;43.35;22.38;;;0.20;99.90;;;;;;5089028;28;20402;-61
2022/01/25 07:31:09;;;;;;;41.47;22.30;;;0.30;99.90;;;;;;5088746;28;20451;-61
2022/01/25 07:33:35;;;;;;;41.88;22.30;;;0.40;99.90;;;;;;5077458;28;20375;-61
2022/01/25 07:36:01;;;;;;;37.65;21.48;;;0.50;99.90;;;;;;5087577;28;20461;-61
2022/01/25 07:38:26;;;;;;;40.97;21.97;;;0.50;99.90;;;;;;5088428;28;20477;-60
2022/01/25 07:40:52;;;;;;;38.67;20.90;;;0.50;99.90;;;;;;5070757;28;20894;-61
2022/01/25 07:43:18;;;;;;;40.47;20.92;;;0.50;99.90;;;;;;5069834;28;20463;-60
2022/01/25 07:45:50;;;;;;;41.37;22.23;;;0.60;99.90;;;;;;5068746;28;21077;-60
2022/01/25 07:48:15;;;;;;;39.67;20.85;;;0.70;99.90;;;;;;5081247;28;20440;-60
2022/01/25 07:50:41;;;;;;;40.03;21.27;;;0.90;99.90;;;;;;5089287;28;20386;-62
2022/01/25 07:53:07;;;;;;;39.63;21.53;;;1.10;99.90;;;;;;5090154;28;20420;-63
2022/01/25 07:55:33;;;;;;;40.95;20.67;;;1.10;99.90;;;;;;5089529;28;20719;-61
2022/01/25 07:57:59;;;;;;;36.45;19.67;;;1.30;99.90;;;;;;5090143;28;20418;-62
2022/01/25 08:00:25;;;;;;;32.95;19.30;;;1.30;99.90;;;;;;5087935;28;20916;-61
2022/01/25 08:02:51;;;;;;;35.75;19.40;;;1.50;99.90;;;;;;5089302;28;20378;-66
2022/01/25 08:05:19;;;;;;;38.42;19.58;;;1.80;99.90;;;;;;5089818;28;20468;-65
2022/01/25 08:07:45;;;;;;;32.10;18.50;;;2.50;99.90;;;;;;5088638;28;20410;-65
2022/01/25 08:10:11;;;;;;;29.97;16.23;;;3.10;99.90;;;;;;5089333;28;20389;-65
2022/01/25 08:12:37;;;;;;;28.67;16.65;;;3.30;99.90;;;;;;5088457;28;20389;-65
2022/01/25 08:15:06;;;;;;;31.60;17.85;;;3.20;99.90;;;;;;5089136;28;20386;-65
2022/01/25 08:17:32;;;;;;;37.75;19.92;;;2.90;99.90;;;;;;5088019;28;20413;-65
2022/01/25 08:19:59;;;;;;;36.38;19.75;;;2.60;99.90;;;;;;5086804;28;20405;-65
2022/01/25 08:22:25;;;;;;;33.95;19.70;;;2.60;99.90;;;;;;5085624;28;20412;-62
2022/01/25 08:24:52;;;;;;;36.10;19.15;;;2.90;99.90;;;;;;5086304;28;20398;-64
2022/01/25 08:27:20;;;;;;;32.22;17.60;;;3.50;99.90;;;;;;5084217;28;20899;-64
2022/01/25 08:29:46;;;;;;;30.60;17.40;;;4.40;99.90;;;;;;5085532;28;20401;-63
2022/01/25 08:32:13;;;;;;;30.40;16.67;;;5.40;99.90;;;;;;5085851;28;21450;-64
2022/01/25 08:34:38;;;;;;;27.38;16.08;;;6.30;99.90;;;;;;5082806;28;20394;-67
2022/01/25 08:37:05;;;;;;;25.60;15.23;;;7.10;99.90;;;;;;5088895;28;20397;-66
2022/01/25 08:39:31;;;;;;;27.65;15.65;;;7.20;99.90;;;;;;5086847;28;20401;-65
2022/01/25 08:41:57;;;;;;;26.15;15.50;;;7.00;99.90;;;;;;5085996;28;20382;-66
2022/01/25 08:44:22;;;;;;;25.43;15.70;;;8.00;99.90;;;;;;5087328;28;20389;-61
2022/01/25 08:46:48;;;;;;;27.35;16.90;;;6.70;99.90;;;;;;5087762;28;20727;-64
2022/01/25 08:49:14;;;;;;;28.30;16.87;;;6.30;99.90;;;;;;5088206;28;20756;-66
2022/01/25 08:51:40;;;;;;;29.92;16.30;;;6.60;99.90;;;;;;5087396;28;20946;-66
2022/01/25 08:54:06;;;;;;;27.90;17.90;;;7.20;99.90;;;;;;5089237;28;20414;-66
2022/01/25 08:56:31;;;;;;;29.17;17.13;;;7.10;99.90;;;;;;5088431;28;20410;-65
2022/01/25 08:58:57;;;;;;;29.10;17.00;;;6.90;99.90;;;;;;5088906;28;20516;-64
2022/01/25 09:01:24;;;;;;;29.38;17.42;;;6.60;99.90;;;;;;5087818;28;20394;-59
2022/01/25 09:03:50;;;;;;;29.20;17.08;;;7.00;99.90;;;;;;5089072;28;20382;-65
2022/01/25 09:06:16;;;;;;;29.55;18.48;;;7.30;99.90;;;;;;5088795;28;20384;-65
2022/01/25 09:08:42;;;;;;;27.75;18.98;;;8.40;99.90;;;;;;5088238;28;20588;-65
2022/01/25 09:11:08;;;;;;;30.95;19.98;;;8.50;99.90;;;;;;5087363;28;20982;-64
2022/01/25 09:13:34;;;;;;;33.73;20.00;;;8.30;99.90;;;;;;5089462;28;20720;-64
2022/01/25 09:16:00;;;;;;;29.50;19.30;;;8.30;99.90;;;;;;5092512;28;20412;-64
2022/01/25 09:18:28;;;;;;;34.08;20.23;;;7.50;99.90;;;;;;5091955;28;20440;-63
2022/01/25 09:20:55;;;;;;;31.97;19.20;;;7.00;99.90;;;;;;5092412;28;20374;-64
2022/01/25 09:23:23;;;;;;;31.90;18.90;;;6.90;99.90;;;;;;5092447;28;20992;-60
2022/01/25 09:25:49;;;;;;;34.27;18.50;;;6.00;99.90;;;;;;5091648;28;20389;-64
2022/01/25 09:28:15;;;;;;;35.00;19.50;;;6.20;99.90;;;;;;5092628;28;20939;-64
2022/01/25 09:30:42;;;;;;;34.72;19.75;;;6.50;99.90;;;;;;5091958;28;20389;-64
2022/01/25 09:33:08;;;;;;;32.17;19.20;;;7.20;99.90;;;;;;5092447;28;20499;-64
2022/01/25 09:35:34;;;;;;;34.08;20.70;;;7.20;99.90;;;;;;5091714;28;20410;-65
2022/01/25 09:37:59;;;;;;;36.47;21.85;;;8.30;99.90;;;;;;5092663;28;20397;-65
2022/01/25 09:40:26;;;;;;;36.33;21.67;;;8.00;99.90;;;;;;5091923;28;20366;-62
2022/01/25 09:42:55;;;;;;;38.45;21.38;;;7.80;99.90;;;;;;5092409;28;20374;-65
2022/01/25 09:45:22;;;;;;;37.28;21.73;;;7.70;99.90;;;;;;5092320;28;20410;-61
2022/01/25 09:47:49;;;;;;;40.95;23.00;;;7.70;99.90;;;;;;5090663;28;20402;-64
2022/01/25 09:50:15;;;;;;;41.42;23.23;;;7.10;99.90;;;;;;5091117;28;20392;-64
2022/01/25 09:52:42;;;;;;;45.63;23.85;;;6.90;99.90;;;;;;5089799;28;21393;-65
2022/01/25 09:55:11;;;;;;;47.00;25.02;;;6.30;99.90;;;;;;5091915;28;20409;-64
2022/01/25 09:57:37;;;;;;;44.92;24.17;;;6.30;99.90;;;;;;5091288;28;20377;-63
2022/01/25 10:00:06;;;;;;;46.88;25.75;;;7.40;99.90;;;;;;5092092;28;20393;-64
2022/01/25 10:05:43;;;;;;;50.58;26.05;;;4.80;99.90;;;;;;5077651;28;20398;-63
2022/01/25 10:08:15;;;;;;;49.92;24.98;;;4.40;99.90;;;;;;5091484;28;20491;-64
2022/01/25 10:10:58;;;;;;;53.50;27.17;;;4.00;99.90;;;;;;5091706;28;20386;-63
2022/01/25 10:13:29;;;;;;;52.22;25.55;;;4.10;99.90;;;;;;5091724;28;20374;-61
2022/01/25 10:15:59;;;;;;;49.72;25.52;;;4.60;99.90;;;;;;5092156;28;20478;-63
2022/01/25 10:18:41;;;;;;;52.90;26.02;;;4.50;99.90;;;;;;5090764;28;20418;-61
2022/01/25 10:21:21;;;;;;;55.10;27.15;;;3.80;99.90;;;;;;5091769;28;20370;-63
2022/01/25 10:24:07;;;;;;;50.28;26.55;;;3.60;99.90;;;;;;5091249;28;20393;-64
2022/01/25 10:27:03;;;;;;;53.40;27.95;;;3.80;99.90;;;;;;5090416;28;20894;-63
2022/01/25 10:29:34;;;;;;;56.50;26.73;;;3.90;99.90;;;;;;5089259;28;20406;-64
2022/01/25 10:32:06;;;;;;;57.35;27.40;;;4.00;99.90;;;;;;5091544;28;20465;-64
2022/01/25 10:34:43;;;;;;;58.10;30.50;;;4.20;99.90;;;;;;5090653;28;20394;-64
2022/01/25 10:37:11;;;;;;;53.55;27.60;;;4.10;99.90;;;;;;5090105;28;20386;-64
2022/01/25 10:39:40;;;;;;;53.63;26.95;;;3.90;99.90;;;;;;5090718;28;20406;-64
2022/01/25 10:42:12;;;;;;;50.60;25.55;;;4.40;99.90;;;;;;5091103;28;20382;-64
2022/01/25 10:44:49;;;;;;;56.35;27.20;;;3.70;99.90;;;;;;5090693;28;20397;-64
2022/01/25 10:47:15;;;;;;;54.95;26.63;;;3.50;99.90;;;;;;5091247;28;20884;-64
2022/01/25 10:49:47;;;;;;;59.00;28.60;;;3.40;99.90;;;;;;5090100;28;21380;-64
2022/01/25 10:52:13;;;;;;;53.70;26.80;;;3.50;99.90;;;;;;5091038;28;20389;-64
2022/01/25 10:54:40;;;;;;;55.28;26.38;;;3.50;99.90;;;;;;5090255;28;20378;-64
2022/01/25 10:57:20;;;;;;;54.20;26.10;;;3.80;99.90;;;;;;5091148;28;20385;-64
2022/01/25 10:59:59;;;;;;;67.50;32.15;;;4.10;99.90;;;;;;5089107;28;20922;-64
2022/01/25 11:02:26;;;;;;;61.83;25.50;;;4.20;99.90;;;;;;5090149;28;20406;-60
2022/01/25 11:05:07;;;;;;;58.37;26.93;;;4.30;99.90;;;;;;5089260;28;20382;-64
2022/01/25 11:07:44;;;;;;;53.00;26.70;;;4.00;99.90;;;;;;5089662;28;20378;-64
2022/01/25 11:10:15;;;;;;;53.92;25.95;;;3.90;99.90;;;;;;5090870;28;20382;-64
2022/01/25 11:12:48;;;;;;;54.13;25.40;;;3.90;99.90;;;;;;5090122;28;20431;-64
2022/01/25 11:15:13;;;;;;;51.40;25.65;;;3.90;99.90;;;;;;5090687;28;20378;-64
2022/01/25 11:17:40;;;;;;;49.23;24.73;;;4.70;99.90;;;;;;5089863;28;20428;-64
2022/01/25 11:20:07;;;;;;;50.08;23.67;;;3.70;99.90;;;;;;5090597;28;20405;-64
2022/01/25 11:22:33;;;;;;;54.22;25.27;;;3.80;99.90;;;;;;5096058;28;20388;-66
2022/01/25 11:25:02;;;;;;;54.42;27.38;;;5.30;99.90;;;;;;5100480;28;20414;-65
2022/01/25 11:27:30;;;;;;;51.00;24.90;;;4.10;99.90;;;;;;5104874;28;20377;-66
2022/01/25 11:30:05;;;;;;;62.50;26.83;;;4.10;99.90;;;;;;5092688;28;20421;-65
2022/01/25 11:32:38;;;;;;;71.73;29.40;;;3.90;99.90;;;;;;5089685;28;20871;-65
2022/01/25 11:35:06;;;;;;;58.10;27.43;;;3.70;99.90;;;;;;5089832;28;20774;-66
2022/01/25 11:37:41;;;;;;;53.77;25.83;;;3.80;99.90;;;;;;5088012;28;20455;-65
2022/01/25 11:40:30;;;;;;;57.03;24.48;;;3.80;99.90;;;;;;5089762;28;20393;-65
2022/01/25 11:42:58;;;;;;;56.70;26.50;;;3.80;99.90;;;;;;5112125;27;20935;-65
2022/01/25 11:45:27;;;;;;;67.25;26.98;;;3.70;99.90;;;;;;5089165;28;20885;-61
2022/01/25 11:47:54;;;;;;;60.60;25.52;;;3.60;99.90;;;;;;5088686;28;20489;-65
2022/01/25 11:50:32;;;;;;;64.90;27.70;;;3.40;99.90;;;;;;5090021;28;20469;-65
2022/01/25 11:53:05;;;;;;;59.50;27.23;;;3.40;99.90;;;;;;5089116;28;20436;-63
2022/01/25 11:55:46;;;;;;;61.33;25.75;;;3.30;99.90;;;;;;5087936;28;20432;-66
2022/01/25 11:58:25;;;;;;;66.40;28.17;;;3.40;99.90;;;;;;5089854;28;20451;-64
2022/01/25 12:00:54;;;;;;;59.25;27.08;;;3.40;99.90;;;;;;5090334;28;20378;-65
2022/01/25 12:03:42;;;;;;;55.03;26.85;;;3.60;99.90;;;;;;5089625;28;20437;-67
2022/01/25 12:06:26;;;;;;;60.88;25.65;;;3.50;99.90;;;;;;5089118;28;20398;-66
2022/01/25 12:11:46;;;;;;;55.20;26.00;;;3.60;99.90;;;;;;5089858;28;20931;-61
2022/01/25 12:14:28;;;;;;;47.47;25.60;;;3.60;99.90;;;;;;5089575;28;20370;-65
2022/01/25 12:17:02;;;;;;;59.63;25.65;;;3.60;99.90;;;;;;5089668;28;20406;-63
2022/01/25 12:19:37;;;;;;;51.65;25.95;;;3.70;99.90;;;;;;5088336;28;20401;-64
2022/01/25 12:22:27;;;;;;;49.75;23.88;;;3.60;99.90;;;;;;5088782;28;20760;-69
2022/01/25 12:25:29;;;;;;;52.45;25.13;;;3.40;99.90;;;;;;5089020;28;20378;-67
2022/01/25 12:28:00;;;;;;;50.60;25.45;;;3.50;99.90;;;;;;5075858;28;20422;-65
2022/01/25 12:30:26;;;;;;;52.38;24.88;;;3.50;99.90;;;;;;5088335;28;20416;-62
2022/01/25 12:32:54;;;;;;;55.72;26.05;;;3.50;99.90;;;;;;5088285;28;20461;-65
2022/01/25 12:35:46;;;;;;;56.33;25.90;;;3.60;99.90;;;;;;5089061;28;20404;-67
2022/01/25 12:38:15;;;;;;;60.63;27.30;;;3.60;99.90;;;;;;5089573;28;20863;-65
2022/01/25 12:40:50;;;;;;;61.53;27.77;;;3.40;99.90;;;;;;5087042;28;20886;-64
2022/01/25 12:43:28;;;;;;;58.93;28.93;;;3.40;99.90;;;;;;5089043;28;20503;-66
2022/01/25 12:45:54;;;;;;;58.83;27.02;;;3.60;99.90;;;;;;5088394;28;20394;-67
2022/01/25 12:48:42;;;;;;;59.45;28.23;;;3.60;99.90;;;;;;5090245;28;20409;-66
2022/01/25 12:51:10;;;;;;;60.25;29.60;;;3.50;99.90;;;;;;5091635;28;20417;-65
2022/01/25 12:53:38;;;;;;;78.80;29.77;;;3.50;99.90;;;;;;5089336;28;20424;-65
2022/01/25 12:56:10;;;;;;;70.38;28.92;;;3.20;99.90;;;;;;5089067;28;20406;-65
2022/01/25 12:58:38;;;;;;;66.30;29.58;;;3.10;99.90;;;;;;5087129;28;20488;-66
2022/01/25 13:01:09;;;;;;;65.88;28.95;;;3.30;99.90;;;;;;5089220;28;20409;-66
2022/01/25 13:03:49;;;;;;;62.13;27.80;;;3.90;99.90;;;;;;5086120;28;20370;-64
2022/01/25 13:06:18;;;;;;;78.97;30.80;;;3.40;99.90;;;;;;5089112;28;20385;-66
2022/01/25 13:08:56;;;;;;;58.63;26.83;;;3.30;99.90;;;;;;5091669;28;20408;-66
2022/01/25 13:16:55;;;;;;;56.38;26.10;;;3.50;99.90;;;;;;5086166;28;20429;-64
2022/01/25 13:19:31;;;;;;;63.42;29.65;;;3.50;99.90;;;;;;5085358;28;20501;-64
2022/01/25 13:22:02;;;;;;;61.95;28.25;;;3.20;99.90;;;;;;5089274;28;20669;-66
2022/01/25 13:24:33;;;;;;;67.65;29.33;;;2.90;99.90;;;;;;5085566;28;20414;-62
2022/01/25 13:27:13;;;;;;;66.35;29.02;;;2.90;99.90;;;;;;5090558;28;20383;-69
2022/01/25 13:32:47;;;;;;;65.40;27.92;;;3.00;99.90;;;;;;5089013;28;20417;-68
2022/01/25 13:35:25;;;;;;;69.35;27.95;;;2.90;99.90;;;;;;5088516;28;20378;-68
2022/01/25 13:38:10;;;;;;;61.85;28.00;;;3.00;99.90;;;;;;5090560;28;20771;-65
2022/01/25 13:40:47;;;;;;;62.95;28.13;;;3.00;99.90;;;;;;5082276;28;21014;-68
2022/01/25 13:43:32;;;;;;;59.50;26.45;;;3.10;99.90;;;;;;5083117;28;20411;-65
2022/01/25 13:46:06;;;;;;;52.60;23.60;;;3.20;99.90;;;;;;5088092;28;20441;-66
2022/01/25 13:48:34;;;;;;;57.58;25.25;;;3.20;99.90;;;;;;5085601;28;20467;-67
2022/01/25 13:51:06;;;;;;;64.28;27.08;;;3.40;99.90;;;;;;5086294;28;20875;-64
2022/01/25 13:53:32;;;;;;;56.80;25.25;;;3.30;99.90;;;;;;5088116;28;20793;-66
2022/01/25 13:56:00;;;;;;;60.42;24.90;;;3.30;99.90;;;;;;5084836;28;21144;-66
2022/01/25 13:58:32;;;;;;;64.85;28.25;;;3.20;99.90;;;;;;5090244;28;20395;-61
2022/01/25 14:01:00;;;;;;;66.45;26.88;;;3.20;99.90;;;;;;5089138;28;20390;-64
2022/01/25 14:03:36;;;;;;;75.67;29.90;;;3.50;99.90;;;;;;5089494;28;20375;-64
2022/01/25 14:06:19;;;;;;;63.95;27.05;;;4.20;99.90;;;;;;5082623;28;20978;-67
2022/01/25 14:08:45;;;;;;;63.60;27.75;;;3.20;99.90;;;;;;5087120;28;20409;-66
2022/01/25 14:11:37;;;;;;;69.30;29.50;;;2.90;99.90;;;;;;5089557;28;20430;-65
2022/01/25 14:25:46;;;;;;;64.95;26.55;;;3.10;99.90;;;;;;5088665;28;20488;-65
2022/01/25 14:28:19;;;;;;;58.83;25.55;;;3.30;99.90;;;;;;5072260;28;20419;-64
2022/01/25 14:30:48;;;;;;;62.50;28.13;;;3.50;99.90;;;;;;5081453;28;20491;-67
2022/01/25 14:33:17;;;;;;;60.58;26.15;;;3.40;99.90;;;;;;5086996;28;20400;-66
2022/01/25 14:35:48;;;;;;;59.80;25.77;;;3.80;99.90;;;;;;5088516;28;20409;-67
2022/01/25 14:38:21;;;;;;;63.75;26.55;;;3.20;99.90;;;;;;5085234;28;20393;-65
2022/01/25 14:41:09;;;;;;;67.75;28.65;;;3.10;99.90;;;;;;5085541;28;20467;-69
2022/01/25 14:43:48;;;;;;;71.53;30.40;;;2.90;99.90;;;;;;5085865;28;20778;-72
2022/01/25 14:46:26;;;;;;;63.10;28.95;;;2.90;99.90;;;;;;5089168;28;20496;-70
2022/01/25 14:49:07;;;;;;;81.30;30.63;;;3.30;99.90;;;;;;5090279;28;20418;-72
2022/01/25 14:51:39;;;;;;;68.28;29.15;;;3.00;99.90;;;;;;5092081;28;20845;-66
2022/01/25 14:54:10;;;;;;;61.80;27.75;;;3.00;99.90;;;;;;5089260;28;20442;-67
2022/01/25 14:56:38;;;;;;;60.90;27.70;;;3.20;99.90;;;;;;5096375;28;21199;-70
2022/01/25 14:59:24;;;;;;;73.05;31.10;;;4.70;99.90;;;;;;5086679;28;21561;-68
2022/01/25 15:01:56;;;;;;;70.80;28.70;;;3.10;99.90;;;;;;5085850;28;20413;-67
2022/01/25 15:04:23;;;;;;;63.63;29.02;;;2.90;99.90;;;;;;5081674;28;20398;-64
2022/01/25 15:06:49;;;;;;;64.60;27.92;;;2.90;99.90;;;;;;5081302;28;20381;-67